Time;durP1;ratioP1;P1;durP2;ratioP2;P2;SDS_P1;SDS_P2;PMS_P1;PMS_P2;Temp;Humidity;BMP_temperature;BMP_pressure;BME280_temperature;BME280_humidity;BME280_pressure;Samples;Min_cycle;Max_cycle;Signal;HPM_P1;HPM_P2
2022/02/03 00:00:44;;;;;;;12.57;9.20;;;;;8.60;101682.00;;;;9617902;30;20213;-83
2022/02/03 00:05:56;;;;;;;12.60;7.83;;;;;8.60;101676.00;;;;9603953;30;21005;-83
2022/02/03 00:27:18;;;;;;;13.17;9.27;;;;;8.50;101655.00;;;;9592157;30;20248;-84
2022/02/03 00:48:30;;;;;;;11.83;5.50;;;;;8.30;101638.00;;;;9588547;31;20296;-83
2022/02/03 00:53:34;;;;;;;5.30;3.70;;;;;8.30;101639.00;;;;9588226;30;20261;-83
2022/02/03 00:58:51;;;;;;;5.33;3.77;;;;;8.30;101645.00;;;;9601591;30;20244;-83
2022/02/03 01:03:55;;;;;;;6.10;2.50;;;;;8.30;101635.00;;;;9587573;30;20237;-83
2022/02/03 01:08:58;;;;;;;3.40;2.27;;;;;8.20;101641.00;;;;9587436;30;20310;-83
2022/02/03 01:14:27;;;;;;;5.93;2.27;;;;;8.20;101642.00;;;;9592320;30;20742;-83
2022/02/03 01:46:15;;;;;;;8.03;2.00;;;;;8.10;101619.00;;;;9621010;30;20271;-83
2022/02/03 01:56:49;;;;;;;6.20;2.10;;;;;8.10;101606.00;;;;9634678;30;20213;-83
2022/02/03 02:02:00;;;;;;;4.03;2.37;;;;;8.10;101604.00;;;;9620675;30;20210;-82
2022/02/03 02:07:26;;;;;;;8.47;2.80;;;;;8.10;101604.00;;;;9606182;30;20237;-83
2022/02/03 02:12:50;;;;;;;4.60;1.80;;;;;8.10;101601.00;;;;9619735;30;20256;-82
2022/02/03 02:18:18;;;;;;;6.10;2.47;;;;;8.10;101599.00;;;;9599122;30;20651;-83
2022/02/03 02:45:23;;;;;;;6.17;3.37;;;;;8.00;101552.00;;;;9622922;30;20208;-82
2022/02/03 02:50:37;;;;;;;5.80;3.20;;;;;8.00;101540.00;;;;9619121;30;20209;-82
2022/02/03 02:56:12;;;;;;;7.63;3.80;;;;;8.00;101540.00;;;;9604478;30;20263;-82
2022/02/03 03:33:50;;;;;;;9.10;5.93;;;;;8.00;101472.00;;;;9618507;30;20221;-82
2022/02/03 03:38:53;;;;;;;10.47;5.10;;;;;8.00;101453.00;;;;9632727;30;20225;-82
2022/02/03 03:44:05;;;;;;;11.87;5.57;;;;;8.00;101451.00;;;;9618214;30;20209;-82
2022/02/03 03:49:22;;;;;;;12.47;5.90;;;;;7.90;101444.00;;;;9622963;30;20248;-82
2022/02/03 03:54:40;;;;;;;16.00;6.13;;;;;7.90;101427.00;;;;9610514;30;20252;-82
2022/02/03 05:05:55;;;;;;;11.77;7.30;;;;;7.90;101383.00;;;;9587739;30;20296;-82
2022/02/03 05:23:12;;;;;;;8.10;5.37;;;;;7.90;101350.00;;;;9607239;30;20240;-82
2022/02/03 06:31:59;;;;;;;11.97;4.50;;;;;7.70;101274.00;;;;9618725;30;20240;-82
2022/02/03 06:37:01;;;;;;;9.63;4.93;;;;;7.70;101286.00;;;;9619617;30;20264;-82
2022/02/03 06:42:05;;;;;;;10.00;4.07;;;;;7.70;101273.00;;;;9620123;30;20205;-82
2022/02/03 06:47:17;;;;;;;12.30;4.73;;;;;7.60;101257.00;;;;9571892;31;20249;-82
2022/02/03 06:52:28;;;;;;;11.27;4.13;;;;;7.60;101274.00;;;;9598821;30;20213;-82
2022/02/03 06:58:09;;;;;;;11.10;4.53;;;;;7.60;101277.00;;;;9597329;30;20245;-82
2022/02/03 07:03:00;;;;;;;6.53;3.80;;;;;7.60;101285.00;;;;9585101;30;20209;-82
2022/02/03 07:08:02;;;;;;;11.27;4.20;;;;;7.60;101286.00;;;;9612660;30;20624;-82
2022/02/03 07:13:04;;;;;;;14.27;4.43;;;;;7.60;101266.00;;;;9597919;30;20281;-82
2022/02/03 07:18:05;;;;;;;8.47;4.30;;;;;7.60;101269.00;;;;9597840;30;20242;-82
2022/02/03 07:23:09;;;;;;;7.27;4.00;;;;;7.60;101262.00;;;;9602127;30;20201;-82
2022/02/03 07:28:12;;;;;;;10.97;4.43;;;;;7.60;101254.00;;;;9589305;30;20255;-82
2022/02/03 07:33:15;;;;;;;10.07;4.00;;;;;7.60;101243.00;;;;9625241;30;20232;-82
2022/02/03 07:38:21;;;;;;;8.83;4.03;;;;;7.60;101243.00;;;;9626491;30;20193;-82
2022/02/03 07:43:23;;;;;;;7.50;4.23;;;;;7.60;101238.00;;;;9626033;30;20201;-82
2022/02/03 07:48:25;;;;;;;8.60;4.40;;;;;7.60;101241.00;;;;9639377;30;20233;-82
2022/02/03 07:53:27;;;;;;;10.50;3.90;;;;;7.60;101242.00;;;;9611201;30;20232;-82
2022/02/03 07:58:28;;;;;;;9.50;4.23;;;;;7.60;101229.00;;;;9624548;30;20217;-82
2022/02/03 08:03:30;;;;;;;10.37;4.67;;;;;7.70;101233.00;;;;9609829;30;20261;-82
2022/02/03 08:08:38;;;;;;;7.77;3.97;;;;;7.70;101218.00;;;;9624512;30;20209;-82
2022/02/03 08:13:51;;;;;;;9.03;3.53;;;;;7.70;101219.00;;;;9639078;30;20765;-82
2022/02/03 08:19:02;;;;;;;7.23;4.60;;;;;7.80;101224.00;;;;9609832;30;20245;-82
2022/02/03 08:24:17;;;;;;;9.13;4.00;;;;;7.80;101215.00;;;;9609343;30;20201;-82
2022/02/03 08:34:47;;;;;;;5.90;4.37;;;;;7.80;101212.00;;;;9610060;30;20217;-82
2022/02/03 08:40:07;;;;;;;5.13;3.63;;;;;7.80;101184.00;;;;9609992;30;20255;-82
2022/02/03 08:45:09;;;;;;;9.77;4.83;;;;;7.80;101193.00;;;;9607325;30;20230;-82
2022/02/03 08:50:11;;;;;;;9.00;4.30;;;;;7.80;101190.00;;;;9608999;30;20209;-82
2022/02/03 09:53:37;;;;;;;9.30;5.13;;;;;8.00;101150.00;;;;9620479;30;20220;-82
2022/02/03 09:58:43;;;;;;;9.40;4.37;;;;;8.00;101135.00;;;;9599881;30;20773;-81
2022/02/03 10:08:49;;;;;;;13.37;4.73;;;;;8.00;101148.00;;;;9590864;30;20733;-81
2022/02/03 10:13:56;;;;;;;8.57;4.73;;;;;8.00;101142.00;;;;9609912;30;20270;-81
2022/02/03 10:19:06;;;;;;;16.27;4.30;;;;;8.00;101145.00;;;;9625251;30;20236;-82
2022/02/03 10:24:14;;;;;;;10.37;4.30;;;;;8.10;101139.00;;;;9620381;30;20205;-81
2022/02/03 10:29:28;;;;;;;11.90;4.40;;;;;8.00;101139.00;;;;9633724;30;20229;-81
2022/02/03 10:34:33;;;;;;;15.33;4.80;;;;;7.90;101130.00;;;;9603437;30;20272;-82
2022/02/03 10:50:36;;;;;;;11.77;7.00;;;;;8.20;101123.00;;;;9609818;30;20227;-81
2022/02/03 11:10:54;;;;;;;10.77;4.57;;;;;8.50;101114.00;;;;9604391;30;20217;-81
2022/02/03 11:16:02;;;;;;;8.77;4.53;;;;;8.70;101096.00;;;;9602719;30;20232;-81
2022/02/03 11:21:04;;;;;;;9.93;4.40;;;;;8.90;101086.00;;;;9617379;30;20213;-81
2022/02/03 11:53:09;;;;;;;7.20;4.70;;;;;9.40;101042.00;;;;9613785;30;20300;-82
2022/02/03 12:04:33;;;;;;;13.03;4.83;;;;;9.60;101016.00;;;;9598622;30;20322;-81
2022/02/03 12:20:55;;;;;;;8.70;5.30;;;;;10.10;101008.00;;;;9608962;30;20710;-82
2022/02/03 12:26:04;;;;;;;11.30;5.60;;;;;10.00;100997.00;;;;9631861;30;20662;-81
2022/02/03 12:41:38;;;;;;;8.50;5.20;;;;;9.60;100972.00;;;;9588750;30;20233;-82
2022/02/03 12:46:45;;;;;;;7.37;3.80;;;;;9.60;100975.00;;;;9616975;30;20317;-81
2022/02/03 12:51:50;;;;;;;8.07;5.00;;;;;9.60;100976.00;;;;9607767;30;20274;-81
2022/02/03 12:57:01;;;;;;;12.03;5.40;;;;;9.60;100983.00;;;;9589330;30;20225;-81
2022/02/03 13:02:11;;;;;;;9.73;4.90;;;;;9.50;100982.00;;;;9610780;30;20348;-82
2022/02/03 13:07:18;;;;;;;7.30;5.00;;;;;9.20;100992.00;;;;9613518;30;20221;-81
2022/02/03 13:12:30;;;;;;;11.67;6.03;;;;;8.90;100986.00;;;;9626120;30;20243;-81
2022/02/03 13:17:37;;;;;;;7.67;5.83;;;;;8.80;100990.00;;;;9613899;30;20260;-82
2022/02/03 13:28:07;;;;;;;12.20;6.00;;;;;8.70;100984.00;;;;9615745;30;20249;-81
2022/02/03 13:33:15;;;;;;;9.60;6.60;;;;;8.60;100982.00;;;;9604884;30;20213;-81
2022/02/03 13:38:32;;;;;;;10.20;6.27;;;;;8.70;100981.00;;;;9592713;30;20205;-81
2022/02/03 13:43:41;;;;;;;12.80;6.73;;;;;8.90;100964.00;;;;9606487;30;20236;-81
2022/02/03 13:48:50;;;;;;;9.53;6.57;;;;;9.10;100968.00;;;;9606591;30;20201;-81
2022/02/03 13:54:09;;;;;;;13.80;6.43;;;;;9.00;100968.00;;;;9629385;30;20240;-81
2022/02/03 14:20:48;;;;;;;13.13;7.80;;;;;8.90;100937.00;;;;9619364;30;20340;-81
2022/02/03 14:31:11;;;;;;;12.23;7.57;;;;;8.80;100937.00;;;;9607223;30;20248;-81
2022/02/03 14:36:17;;;;;;;14.83;8.63;;;;;8.80;100922.00;;;;9619152;30;20229;-81
2022/02/03 14:41:53;;;;;;;10.73;7.67;;;;;8.70;100927.00;;;;9620327;30;20204;-81
2022/02/03 14:46:47;;;;;;;11.40;8.87;;;;;8.80;100933.00;;;;9588578;30;20707;-81
2022/02/03 14:52:10;;;;;;;10.83;8.10;;;;;8.60;100927.00;;;;9619539;30;20268;-81
2022/02/03 15:02:33;;;;;;;12.90;8.23;;;;;8.50;100933.00;;;;9619312;30;20276;-81
2022/02/03 15:07:40;;;;;;;15.53;8.87;;;;;8.40;100922.00;;;;9618323;30;20729;-80
2022/02/03 15:12:57;;;;;;;10.70;7.47;;;;;8.30;100914.00;;;;9617160;30;20264;-81
2022/02/03 15:17:59;;;;;;;13.43;9.20;;;;;8.20;100909.00;;;;9632255;30;20229;-80
2022/02/03 15:23:02;;;;;;;16.67;9.10;;;;;8.10;100898.00;;;;9617325;30;20216;-80
2022/02/03 15:28:04;;;;;;;14.20;8.67;;;;;8.10;100899.00;;;;9615583;30;20221;-79
2022/02/03 15:33:06;;;;;;;15.37;9.37;;;;;8.00;100893.00;;;;9619259;30;20213;-79
2022/02/03 15:38:13;;;;;;;15.67;9.67;;;;;7.90;100901.00;;;;9612162;30;20221;-79
2022/02/03 15:43:25;;;;;;;16.47;8.83;;;;;7.90;100877.00;;;;9616634;30;20236;-79
2022/02/03 16:19:42;;;;;;;13.60;9.33;;;;;7.60;100858.00;;;;9618897;30;20538;-79
2022/02/03 16:24:52;;;;;;;16.80;10.23;;;;;7.60;100857.00;;;;9619020;30;20190;-79
2022/02/03 16:41:08;;;;;;;14.27;10.43;;;;;7.60;100855.00;;;;9620708;30;20232;-79
2022/02/03 16:51:46;;;;;;;15.60;10.53;;;;;7.60;100857.00;;;;9641268;30;20215;-79
2022/02/03 16:56:52;;;;;;;19.80;9.87;;;;;7.60;100860.00;;;;9669162;30;20278;-79
2022/02/03 17:01:54;;;;;;;14.73;9.97;;;;;7.60;100865.00;;;;9655153;30;20316;-80
2022/02/03 17:06:56;;;;;;;16.33;10.37;;;;;7.60;100863.00;;;;9654464;30;20224;-78
2022/02/03 17:11:57;;;;;;;13.27;10.00;;;;;7.60;100853.00;;;;9640006;30;20216;-79
2022/02/03 17:17:00;;;;;;;17.93;11.20;;;;;7.60;100844.00;;;;9583861;30;20822;-79
2022/02/03 17:22:03;;;;;;;15.30;10.23;;;;;7.60;100854.00;;;;9618782;30;20209;-79
2022/02/03 18:30:49;;;;;;;25.53;16.07;;;;;7.30;100856.00;;;;9616913;30;20220;-79
2022/02/03 18:51:47;;;;;;;30.47;18.53;;;;;7.30;100847.00;;;;9615925;30;20757;-79
2022/02/03 18:56:58;;;;;;;25.97;16.77;;;;;7.40;100836.00;;;;9602000;30;20300;-78
2022/02/03 19:02:54;;;;;;;23.77;16.40;;;;;7.40;100833.00;;;;9629820;30;20217;-78
2022/02/03 20:11:15;;;;;;;21.20;14.23;;;;;7.40;100859.00;;;;9614973;30;20292;-79
2022/02/03 20:16:20;;;;;;;22.50;14.27;;;;;7.40;100866.00;;;;9592120;30;20225;-79
2022/02/03 20:21:24;;;;;;;23.33;14.80;;;;;7.40;100873.00;;;;9626959;30;20256;-79
2022/02/03 20:26:26;;;;;;;22.13;14.80;;;;;7.50;100859.00;;;;9589629;30;20236;-79
2022/02/03 20:31:28;;;;;;;20.87;14.80;;;;;7.50;100862.00;;;;9591409;30;20296;-79
2022/02/03 20:36:30;;;;;;;22.57;14.73;;;;;7.50;100860.00;;;;9618194;30;20766;-78
2022/02/03 20:41:32;;;;;;;23.50;14.97;;;;;7.50;100848.00;;;;9604896;30;20213;-78
2022/02/03 20:46:35;;;;;;;21.77;14.87;;;;;7.40;100856.00;;;;9642578;30;20295;-79
2022/02/03 20:51:43;;;;;;;25.80;15.47;;;;;7.40;100852.00;;;;9669366;30;20213;-79
2022/02/03 20:56:47;;;;;;;23.53;15.87;;;;;7.40;100844.00;;;;9641337;30;20648;-80
2022/02/03 21:01:51;;;;;;;26.90;14.77;;;;;7.40;100853.00;;;;9649696;30;20661;-78
2022/02/03 21:06:53;;;;;;;23.23;14.77;;;;;7.50;100861.00;;;;9619789;30;20259;-78
2022/02/03 21:11:55;;;;;;;22.37;15.10;;;;;7.50;100847.00;;;;9607352;30;20309;-79
2022/02/03 21:16:57;;;;;;;29.53;16.20;;;;;7.50;100852.00;;;;9594570;30;20220;-79
2022/02/03 21:22:02;;;;;;;27.40;16.23;;;;;7.50;100845.00;;;;9604872;30;20248;-79
2022/02/03 21:27:04;;;;;;;25.13;14.73;;;;;7.50;100849.00;;;;9589791;30;20280;-79
2022/02/03 21:32:06;;;;;;;23.30;15.00;;;;;7.50;100836.00;;;;9602676;30;20213;-79
2022/02/03 21:37:08;;;;;;;24.13;14.43;;;;;7.50;100833.00;;;;9607357;30;20229;-79
2022/02/03 21:42:10;;;;;;;21.53;13.47;;;;;7.50;100844.00;;;;9633883;30;20205;-79
2022/02/03 21:47:12;;;;;;;23.40;14.83;;;;;7.50;100845.00;;;;9596231;30;20209;-79
2022/02/03 21:52:20;;;;;;;22.57;14.67;;;;;7.50;100846.00;;;;9599194;30;20217;-79
2022/02/03 21:57:22;;;;;;;21.33;13.53;;;;;7.50;100835.00;;;;9601734;30;20221;-79
2022/02/03 22:02:24;;;;;;;21.90;12.67;;;;;7.50;100834.00;;;;9617299;30;20209;-79
2022/02/03 22:07:26;;;;;;;17.77;13.03;;;;;7.40;100823.00;;;;9610459;30;20660;-80
2022/02/03 22:12:27;;;;;;;21.10;12.90;;;;;7.40;100836.00;;;;9636792;30;20267;-79
2022/02/03 22:17:30;;;;;;;20.77;13.10;;;;;7.40;100844.00;;;;9581386;30;20228;-79
2022/02/03 22:22:59;;;;;;;18.97;13.17;;;;;7.40;100835.00;;;;9630354;30;20213;-79
2022/02/03 22:28:14;;;;;;;17.93;13.03;;;;;7.40;100837.00;;;;9588699;30;20212;-79
2022/02/03 22:44:26;;;;;;;17.83;12.57;;;;;7.40;100828.00;;;;9637466;30;20279;-79
2022/02/03 22:49:06;;;;;;;16.67;11.37;;;;;7.40;100834.00;;;;9617920;30;20221;-79
2022/02/03 22:54:09;;;;;;;17.10;11.10;;;;;7.50;100822.00;;;;9635648;30;20298;-81
2022/02/03 23:04:33;;;;;;;20.07;12.93;;;;;7.50;100835.00;;;;9628923;30;20240;-80
2022/02/03 23:09:46;;;;;;;16.80;11.30;;;;;7.50;100833.00;;;;9606119;30;20241;-79
2022/02/03 23:25:02;;;;;;;17.33;12.20;;;;;7.50;100847.00;;;;9600714;30;20235;-79
2022/02/03 23:30:06;;;;;;;16.20;12.40;;;;;7.50;100828.00;;;;9615035;30;20217;-80
2022/02/03 23:35:16;;;;;;;17.40;11.53;;;;;7.50;100824.00;;;;9586870;30;20287;-79
